Rangoon, Myanmar

7:57 PM +0630 on April 24, 2017 (GMT +0630)
Golden Valley | | Change Station

Elev 105 ft 16.82 °N, 96.14 °E | Updated 8 seconds ago

Partly Cloudy
Partly Cloudy
85.5 °F
Feels Like 88 °F
N
0.4
Wind Variable Wind from SSW
Gusts 2.5 mph

Today
High -- | Low -- °F
--% Chance of Precip.
Yesterday
High -- | Low -- °F
Precip. -- in
Pressure 29.80 in
Visibility 4.3 miles
Clouds Scattered Clouds 1500 ft
Scattered Clouds 11000 ft
Heat Index 88 °F
Dew Point 67 °F
Humidity 54%
Rainfall 0.00 in
Snow Depth Not available.
5:44 AM 6:23 PM
Waning Crescent, 5% visible
METAR VYYY 241300Z 19008KT 7000 SCT015 SCT110 30/22 Q1009
Pressure 29.80 in
Visibility 4.3 miles
Clouds Scattered Clouds 1500 ft
Scattered Clouds 11000 ft
Heat Index 88 °F
Dew Point 67 °F
Humidity 54%
Rainfall 0.00 in
Snow Depth Not available.
5:44 AM 6:23 PM
Waning Crescent, 5% visible
METAR VYYY 241300Z 19008KT 7000 SCT015 SCT110 30/22 Q1009

Get Severe Weather Alerts

Thanks for signing up!

Be on the lookout for a verification email in your inbox.

You'll start receiving the daily forecast at 8 AM.

×

10-Day Weather Forecast

No radar image for this location.
×

Almanac

Astronomy

Apr. 24, 2017 Rise Set
Actual Time
Civil Twilight
Nautical Twilight
Astronomical Twilight
Moon
Length of Visible Light
Length of Day
Tomorrow will be .
, % of the Moon is Illuminated

Today's Extremes

Country Highs Country Lows

Community

WunderPhotos

WunderBlog® & News

Nearby

Air Quality

  Air Quality AQ Index Pollutant
Not available.

Snow Depth

Station Depth Elevation

Earthquake Activity

City Distance Mag. Time & Date
Minimum magnitude displayed is 2.5.

Coastal Water Temperatures

Place Temperature

Stations

Nearby Weather Stations

Station Location Temp. Windchill Dew Point Humidity Wind Precip. Elev Updated Type